sensor_id;sensor_type;location;lat;lon;timestamp;P1;durP1;ratioP1;P2;durP2;ratioP2
27223;SDS011;14965;50.660;13.226;2023-12-14T00:01:42;7.45;;;5.18;;
27223;SDS011;14965;50.660;13.226;2023-12-14T00:04:08;9.30;;;5.63;;
27223;SDS011;14965;50.660;13.226;2023-12-14T00:06:34;9.52;;;5.63;;
27223;SDS011;14965;50.660;13.226;2023-12-14T00:08:59;7.43;;;4.93;;
27223;SDS011;14965;50.660;13.226;2023-12-14T00:11:25;8.75;;;5.28;;
27223;SDS011;14965;50.660;13.226;2023-12-14T00:13:51;7.95;;;4.47;;
27223;SDS011;14965;50.660;13.226;2023-12-14T00:16:17;8.40;;;4.70;;
27223;SDS011;14965;50.660;13.226;2023-12-14T00:18:44;7.70;;;3.92;;
27223;SDS011;14965;50.660;13.226;2023-12-14T00:21:10;6.68;;;4.00;;
27223;SDS011;14965;50.660;13.226;2023-12-14T00:23:36;5.75;;;3.60;;
27223;SDS011;14965;50.660;13.226;2023-12-14T00:26:02;7.70;;;4.35;;
27223;SDS011;14965;50.660;13.226;2023-12-14T00:28:28;6.32;;;3.78;;
27223;SDS011;14965;50.660;13.226;2023-12-14T00:30:54;5.97;;;3.78;;
27223;SDS011;14965;50.660;13.226;2023-12-14T00:33:20;5.65;;;4.00;;
27223;SDS011;14965;50.660;13.226;2023-12-14T00:35:47;6.50;;;3.38;;
27223;SDS011;14965;50.660;13.226;2023-12-14T00:38:13;6.30;;;4.28;;
27223;SDS011;14965;50.660;13.226;2023-12-14T00:40:39;7.32;;;4.32;;
27223;SDS011;14965;50.660;13.226;2023-12-14T00:43:05;6.45;;;4.45;;
27223;SDS011;14965;50.660;13.226;2023-12-14T00:45:31;6.22;;;4.20;;
27223;SDS011;14965;50.660;13.226;2023-12-14T00:47:57;7.95;;;4.40;;
27223;SDS011;14965;50.660;13.226;2023-12-14T00:50:23;9.70;;;4.55;;
27223;SDS011;14965;50.660;13.226;2023-12-14T00:52:50;6.53;;;4.20;;
27223;SDS011;14965;50.660;13.226;2023-12-14T00:55:16;5.72;;;3.95;;
27223;SDS011;14965;50.660;13.226;2023-12-14T00:57:42;5.43;;;3.90;;
27223;SDS011;14965;50.660;13.226;2023-12-14T01:00:09;6.07;;;3.72;;
27223;SDS011;14965;50.660;13.226;2023-12-14T01:02:36;9.93;;;4.70;;
27223;SDS011;14965;50.660;13.226;2023-12-14T01:05:02;6.05;;;3.63;;
27223;SDS011;14965;50.660;13.226;2023-12-14T01:07:29;4.32;;;2.85;;
27223;SDS011;14965;50.660;13.226;2023-12-14T01:09:56;6.05;;;3.60;;
27223;SDS011;14965;50.660;13.226;2023-12-14T01:12:22;6.22;;;4.00;;
27223;SDS011;14965;50.660;13.226;2023-12-14T01:14:47;6.82;;;3.60;;
27223;SDS011;14965;50.660;13.226;2023-12-14T01:17:13;6.75;;;3.58;;
27223;SDS011;14965;50.660;13.226;2023-12-14T01:19:39;6.63;;;3.50;;
27223;SDS011;14965;50.660;13.226;2023-12-14T01:22:05;7.80;;;4.18;;
27223;SDS011;14965;50.660;13.226;2023-12-14T01:24:31;6.18;;;3.72;;
27223;SDS011;14965;50.660;13.226;2023-12-14T01:26:59;6.15;;;3.63;;
27223;SDS011;14965;50.660;13.226;2023-12-14T01:29:24;6.72;;;3.58;;
27223;SDS011;14965;50.660;13.226;2023-12-14T01:31:50;6.85;;;3.95;;
27223;SDS011;14965;50.660;13.226;2023-12-14T01:34:16;8.73;;;3.85;;
27223;SDS011;14965;50.660;13.226;2023-12-14T01:36:42;6.57;;;4.00;;
27223;SDS011;14965;50.660;13.226;2023-12-14T01:39:08;7.40;;;4.00;;
27223;SDS011;14965;50.660;13.226;2023-12-14T01:41:34;6.90;;;4.10;;
27223;SDS011;14965;50.660;13.226;2023-12-14T01:44:01;6.65;;;4.32;;
27223;SDS011;14965;50.660;13.226;2023-12-14T01:46:27;7.03;;;3.88;;
27223;SDS011;14965;50.660;13.226;2023-12-14T01:48:53;7.65;;;4.05;;
27223;SDS011;14965;50.660;13.226;2023-12-14T01:51:19;5.22;;;3.47;;
27223;SDS011;14965;50.660;13.226;2023-12-14T01:53:45;9.02;;;3.92;;
27223;SDS011;14965;50.660;13.226;2023-12-14T01:56:11;5.47;;;3.72;;
27223;SDS011;14965;50.660;13.226;2023-12-14T01:58:37;5.40;;;3.60;;
27223;SDS011;14965;50.660;13.226;2023-12-14T02:01:05;6.65;;;3.80;;
27223;SDS011;14965;50.660;13.226;2023-12-14T02:03:45;8.48;;;4.10;;
27223;SDS011;14965;50.660;13.226;2023-12-14T02:06:12;11.23;;;4.78;;
27223;SDS011;14965;50.660;13.226;2023-12-14T02:08:38;5.95;;;3.60;;
27223;SDS011;14965;50.660;13.226;2023-12-14T02:11:04;7.43;;;4.10;;
27223;SDS011;14965;50.660;13.226;2023-12-14T02:13:30;5.55;;;4.20;;
27223;SDS011;14965;50.660;13.226;2023-12-14T02:15:56;6.13;;;4.15;;
27223;SDS011;14965;50.660;13.226;2023-12-14T02:18:23;7.30;;;4.20;;
27223;SDS011;14965;50.660;13.226;2023-12-14T02:20:49;8.13;;;4.60;;
27223;SDS011;14965;50.660;13.226;2023-12-14T02:23:16;6.95;;;3.60;;
27223;SDS011;14965;50.660;13.226;2023-12-14T02:25:42;5.93;;;4.00;;
27223;SDS011;14965;50.660;13.226;2023-12-14T02:28:08;6.75;;;4.07;;
27223;SDS011;14965;50.660;13.226;2023-12-14T02:30:34;7.90;;;4.07;;
27223;SDS011;14965;50.660;13.226;2023-12-14T02:33:00;6.70;;;4.00;;
27223;SDS011;14965;50.660;13.226;2023-12-14T02:35:26;6.40;;;3.92;;
27223;SDS011;14965;50.660;13.226;2023-12-14T02:37:52;6.20;;;3.83;;
27223;SDS011;14965;50.660;13.226;2023-12-14T02:40:20;7.30;;;3.90;;
27223;SDS011;14965;50.660;13.226;2023-12-14T02:42:46;7.85;;;4.70;;
27223;SDS011;14965;50.660;13.226;2023-12-14T02:45:11;5.50;;;4.15;;
27223;SDS011;14965;50.660;13.226;2023-12-14T02:47:37;6.25;;;3.53;;
27223;SDS011;14965;50.660;13.226;2023-12-14T02:50:04;8.38;;;3.78;;
27223;SDS011;14965;50.660;13.226;2023-12-14T02:52:31;7.78;;;3.85;;
27223;SDS011;14965;50.660;13.226;2023-12-14T02:54:57;6.20;;;4.15;;
27223;SDS011;14965;50.660;13.226;2023-12-14T02:57:24;8.68;;;4.30;;
27223;SDS011;14965;50.660;13.226;2023-12-14T02:59:50;5.90;;;3.80;;
27223;SDS011;14965;50.660;13.226;2023-12-14T03:02:16;4.85;;;3.67;;
27223;SDS011;14965;50.660;13.226;2023-12-14T03:04:42;5.72;;;3.60;;
27223;SDS011;14965;50.660;13.226;2023-12-14T03:07:08;6.22;;;3.53;;
27223;SDS011;14965;50.660;13.226;2023-12-14T03:09:34;8.05;;;4.03;;
27223;SDS011;14965;50.660;13.226;2023-12-14T03:12:00;6.82;;;3.35;;
27223;SDS011;14965;50.660;13.226;2023-12-14T03:14:31;7.60;;;4.40;;
27223;SDS011;14965;50.660;13.226;2023-12-14T03:16:58;6.85;;;4.40;;
27223;SDS011;14965;50.660;13.226;2023-12-14T03:19:24;6.93;;;3.75;;
27223;SDS011;14965;50.660;13.226;2023-12-14T03:21:50;6.68;;;4.18;;
27223;SDS011;14965;50.660;13.226;2023-12-14T03:24:16;5.57;;;3.75;;
27223;SDS011;14965;50.660;13.226;2023-12-14T03:26:42;5.75;;;4.15;;
27223;SDS011;14965;50.660;13.226;2023-12-14T03:29:08;8.13;;;4.32;;
27223;SDS011;14965;50.660;13.226;2023-12-14T03:31:35;6.43;;;4.38;;
27223;SDS011;14965;50.660;13.226;2023-12-14T03:34:01;9.00;;;5.20;;
27223;SDS011;14965;50.660;13.226;2023-12-14T03:36:27;7.30;;;4.20;;
27223;SDS011;14965;50.660;13.226;2023-12-14T03:38:53;7.10;;;3.90;;
27223;SDS011;14965;50.660;13.226;2023-12-14T03:41:19;6.65;;;4.00;;
27223;SDS011;14965;50.660;13.226;2023-12-14T03:43:45;7.45;;;4.38;;
27223;SDS011;14965;50.660;13.226;2023-12-14T03:46:11;7.85;;;4.32;;
27223;SDS011;14965;50.660;13.226;2023-12-14T03:48:39;8.20;;;4.85;;
27223;SDS011;14965;50.660;13.226;2023-12-14T03:51:05;9.00;;;5.20;;
27223;SDS011;14965;50.660;13.226;2023-12-14T03:53:31;9.48;;;4.85;;
27223;SDS011;14965;50.660;13.226;2023-12-14T03:55:58;7.25;;;4.43;;
27223;SDS011;14965;50.660;13.226;2023-12-14T03:58:25;7.43;;;4.45;;
27223;SDS011;14965;50.660;13.226;2023-12-14T04:00:52;7.55;;;4.85;;
27223;SDS011;14965;50.660;13.226;2023-12-14T04:03:18;5.60;;;3.90;;
27223;SDS011;14965;50.660;13.226;2023-12-14T04:05:45;6.68;;;4.68;;
27223;SDS011;14965;50.660;13.226;2023-12-14T04:08:11;8.05;;;5.22;;
27223;SDS011;14965;50.660;13.226;2023-12-14T04:10:37;10.40;;;6.05;;
27223;SDS011;14965;50.660;13.226;2023-12-14T04:13:03;9.55;;;5.90;;
27223;SDS011;14965;50.660;13.226;2023-12-14T04:15:29;11.35;;;6.30;;
27223;SDS011;14965;50.660;13.226;2023-12-14T04:17:55;9.77;;;5.75;;
27223;SDS011;14965;50.660;13.226;2023-12-14T04:20:21;11.25;;;6.05;;
27223;SDS011;14965;50.660;13.226;2023-12-14T04:22:48;9.18;;;5.93;;
27223;SDS011;14965;50.660;13.226;2023-12-14T04:25:14;9.48;;;5.75;;
27223;SDS011;14965;50.660;13.226;2023-12-14T04:27:40;9.90;;;6.07;;
27223;SDS011;14965;50.660;13.226;2023-12-14T04:30:06;10.38;;;6.35;;
27223;SDS011;14965;50.660;13.226;2023-12-14T04:32:33;14.27;;;7.78;;
27223;SDS011;14965;50.660;13.226;2023-12-14T04:34:59;12.32;;;7.07;;
27223;SDS011;14965;50.660;13.226;2023-12-14T04:37:24;13.40;;;7.72;;
27223;SDS011;14965;50.660;13.226;2023-12-14T04:39:52;11.30;;;7.00;;
27223;SDS011;14965;50.660;13.226;2023-12-14T04:42:18;13.20;;;7.60;;
27223;SDS011;14965;50.660;13.226;2023-12-14T04:44:44;16.42;;;8.32;;
27223;SDS011;14965;50.660;13.226;2023-12-14T04:47:10;16.48;;;8.30;;
27223;SDS011;14965;50.660;13.226;2023-12-14T04:49:36;14.20;;;8.43;;
27223;SDS011;14965;50.660;13.226;2023-12-14T04:52:02;18.20;;;9.35;;
27223;SDS011;14965;50.660;13.226;2023-12-14T04:54:29;14.48;;;8.73;;
27223;SDS011;14965;50.660;13.226;2023-12-14T04:56:56;18.52;;;9.07;;
27223;SDS011;14965;50.660;13.226;2023-12-14T04:59:22;24.20;;;10.48;;
27223;SDS011;14965;50.660;13.226;2023-12-14T05:01:48;25.15;;;10.75;;
27223;SDS011;14965;50.660;13.226;2023-12-14T05:04:14;41.85;;;13.43;;
27223;SDS011;14965;50.660;13.226;2023-12-14T05:06:39;52.25;;;14.38;;
27223;SDS011;14965;50.660;13.226;2023-12-14T05:09:06;35.25;;;12.52;;
27223;SDS011;14965;50.660;13.226;2023-12-14T05:11:32;70.35;;;12.88;;
27223;SDS011;14965;50.660;13.226;2023-12-14T05:13:59;67.53;;;15.15;;
27223;SDS011;14965;50.660;13.226;2023-12-14T05:16:25;83.63;;;14.70;;
27223;SDS011;14965;50.660;13.226;2023-12-14T05:18:51;99.78;;;16.13;;
27223;SDS011;14965;50.660;13.226;2023-12-14T05:21:17;90.07;;;16.27;;
27223;SDS011;14965;50.660;13.226;2023-12-14T05:23:43;37.88;;;13.18;;
27223;SDS011;14965;50.660;13.226;2023-12-14T05:26:09;52.60;;;14.57;;
27223;SDS011;14965;50.660;13.226;2023-12-14T05:28:35;49.15;;;14.48;;
27223;SDS011;14965;50.660;13.226;2023-12-14T05:31:03;38.10;;;14.05;;
27223;SDS011;14965;50.660;13.226;2023-12-14T05:33:29;40.38;;;15.18;;
27223;SDS011;14965;50.660;13.226;2023-12-14T05:35:55;38.55;;;14.90;;
27223;SDS011;14965;50.660;13.226;2023-12-14T05:38:21;44.58;;;15.98;;
27223;SDS011;14965;50.660;13.226;2023-12-14T05:40:47;40.67;;;15.13;;
27223;SDS011;14965;50.660;13.226;2023-12-14T05:43:13;38.28;;;14.43;;
27223;SDS011;14965;50.660;13.226;2023-12-14T05:45:39;30.98;;;13.13;;
27223;SDS011;14965;50.660;13.226;2023-12-14T05:48:06;33.20;;;13.77;;
27223;SDS011;14965;50.660;13.226;2023-12-14T05:50:32;36.45;;;15.38;;
27223;SDS011;14965;50.660;13.226;2023-12-14T05:52:58;42.58;;;16.42;;
27223;SDS011;14965;50.660;13.226;2023-12-14T05:55:24;53.65;;;17.92;;
27223;SDS011;14965;50.660;13.226;2023-12-14T05:57:50;52.17;;;17.20;;
27223;SDS011;14965;50.660;13.226;2023-12-14T06:00:17;52.95;;;17.45;;
27223;SDS011;14965;50.660;13.226;2023-12-14T06:02:43;44.75;;;16.13;;
27223;SDS011;14965;50.660;13.226;2023-12-14T06:05:11;42.22;;;19.73;;
27223;SDS011;14965;50.660;13.226;2023-12-14T06:07:37;42.95;;;24.13;;
27223;SDS011;14965;50.660;13.226;2023-12-14T06:10:03;35.97;;;19.08;;
27223;SDS011;14965;50.660;13.226;2023-12-14T06:12:30;34.58;;;17.00;;
27223;SDS011;14965;50.660;13.226;2023-12-14T06:14:56;32.75;;;15.20;;
27223;SDS011;14965;50.660;13.226;2023-12-14T06:17:22;31.80;;;16.50;;
27223;SDS011;14965;50.660;13.226;2023-12-14T06:19:48;22.50;;;11.40;;
27223;SDS011;14965;50.660;13.226;2023-12-14T06:22:15;24.73;;;12.38;;
27223;SDS011;14965;50.660;13.226;2023-12-14T06:24:41;24.52;;;13.88;;
27223;SDS011;14965;50.660;13.226;2023-12-14T06:27:07;19.00;;;10.15;;
27223;SDS011;14965;50.660;13.226;2023-12-14T06:29:33;19.88;;;9.38;;
27223;SDS011;14965;50.660;13.226;2023-12-14T06:31:59;28.00;;;13.23;;
27223;SDS011;14965;50.660;13.226;2023-12-14T06:34:25;21.75;;;11.68;;
27223;SDS011;14965;50.660;13.226;2023-12-14T06:36:51;18.30;;;9.77;;
27223;SDS011;14965;50.660;13.226;2023-12-14T06:39:18;19.00;;;9.05;;
27223;SDS011;14965;50.660;13.226;2023-12-14T06:41:47;18.90;;;9.50;;
27223;SDS011;14965;50.660;13.226;2023-12-14T06:44:13;15.93;;;8.70;;
27223;SDS011;14965;50.660;13.226;2023-12-14T06:46:39;17.05;;;9.23;;
27223;SDS011;14965;50.660;13.226;2023-12-14T06:49:05;17.50;;;9.75;;
27223;SDS011;14965;50.660;13.226;2023-12-14T06:51:31;27.75;;;11.88;;
27223;SDS011;14965;50.660;13.226;2023-12-14T06:53:57;23.77;;;11.13;;
27223;SDS011;14965;50.660;13.226;2023-12-14T06:56:24;25.60;;;12.63;;
27223;SDS011;14965;50.660;13.226;2023-12-14T06:58:50;21.70;;;10.98;;
27223;SDS011;14965;50.660;13.226;2023-12-14T07:01:16;22.45;;;12.10;;
27223;SDS011;14965;50.660;13.226;2023-12-14T07:03:42;25.63;;;13.32;;
27223;SDS011;14965;50.660;13.226;2023-12-14T07:06:11;26.92;;;14.57;;
27223;SDS011;14965;50.660;13.226;2023-12-14T07:08:38;28.75;;;13.73;;
27223;SDS011;14965;50.660;13.226;2023-12-14T07:11:04;23.27;;;12.32;;
27223;SDS011;14965;50.660;13.226;2023-12-14T07:13:32;13.75;;;7.53;;
27223;SDS011;14965;50.660;13.226;2023-12-14T07:15:58;14.45;;;7.38;;
27223;SDS011;14965;50.660;13.226;2023-12-14T07:18:24;19.08;;;7.72;;
27223;SDS011;14965;50.660;13.226;2023-12-14T07:20:50;14.15;;;7.35;;
27223;SDS011;14965;50.660;13.226;2023-12-14T07:23:16;16.67;;;8.65;;
27223;SDS011;14965;50.660;13.226;2023-12-14T07:25:42;16.63;;;8.18;;
27223;SDS011;14965;50.660;13.226;2023-12-14T07:28:08;15.05;;;7.78;;
27223;SDS011;14965;50.660;13.226;2023-12-14T07:30:36;13.40;;;7.50;;
27223;SDS011;14965;50.660;13.226;2023-12-14T07:33:02;17.75;;;7.97;;
27223;SDS011;14965;50.660;13.226;2023-12-14T07:35:28;14.18;;;7.45;;
27223;SDS011;14965;50.660;13.226;2023-12-14T07:37:54;15.75;;;7.95;;
27223;SDS011;14965;50.660;13.226;2023-12-14T07:40:19;16.60;;;7.55;;
27223;SDS011;14965;50.660;13.226;2023-12-14T07:42:45;13.15;;;7.38;;
27223;SDS011;14965;50.660;13.226;2023-12-14T07:45:11;13.55;;;7.97;;
27223;SDS011;14965;50.660;13.226;2023-12-14T07:47:38;18.75;;;9.18;;
27223;SDS011;14965;50.660;13.226;2023-12-14T07:50:05;14.85;;;7.97;;
27223;SDS011;14965;50.660;13.226;2023-12-14T07:52:32;18.38;;;8.38;;
27223;SDS011;14965;50.660;13.226;2023-12-14T07:54:58;17.90;;;9.30;;
27223;SDS011;14965;50.660;13.226;2023-12-14T07:57:24;18.10;;;8.40;;
27223;SDS011;14965;50.660;13.226;2023-12-14T07:59:50;21.27;;;9.32;;
27223;SDS011;14965;50.660;13.226;2023-12-14T08:02:15;27.40;;;10.63;;
27223;SDS011;14965;50.660;13.226;2023-12-14T08:04:43;17.67;;;9.18;;
27223;SDS011;14965;50.660;13.226;2023-12-14T08:07:08;17.40;;;9.35;;
27223;SDS011;14965;50.660;13.226;2023-12-14T08:09:34;21.17;;;9.30;;
27223;SDS011;14965;50.660;13.226;2023-12-14T08:12:00;26.08;;;10.32;;
27223;SDS011;14965;50.660;13.226;2023-12-14T08:14:26;23.52;;;10.82;;
27223;SDS011;14965;50.660;13.226;2023-12-14T08:16:52;28.38;;;11.27;;
27223;SDS011;14965;50.660;13.226;2023-12-14T08:19:18;48.10;;;12.15;;
27223;SDS011;14965;50.660;13.226;2023-12-14T08:21:45;36.88;;;11.30;;
27223;SDS011;14965;50.660;13.226;2023-12-14T08:24:11;39.80;;;11.55;;
27223;SDS011;14965;50.660;13.226;2023-12-14T08:26:37;96.35;;;13.95;;
27223;SDS011;14965;50.660;13.226;2023-12-14T08:29:03;49.83;;;12.63;;
27223;SDS011;14965;50.660;13.226;2023-12-14T08:31:29;30.92;;;10.73;;
27223;SDS011;14965;50.660;13.226;2023-12-14T08:33:55;30.70;;;11.85;;
27223;SDS011;14965;50.660;13.226;2023-12-14T08:36:21;29.13;;;11.32;;
27223;SDS011;14965;50.660;13.226;2023-12-14T08:38:48;38.88;;;13.07;;
27223;SDS011;14965;50.660;13.226;2023-12-14T08:41:14;25.40;;;10.70;;
27223;SDS011;14965;50.660;13.226;2023-12-14T08:43:40;22.77;;;9.52;;
27223;SDS011;14965;50.660;13.226;2023-12-14T08:46:06;16.38;;;8.32;;
27223;SDS011;14965;50.660;13.226;2023-12-14T08:48:32;20.92;;;9.23;;
27223;SDS011;14965;50.660;13.226;2023-12-14T08:50:58;17.58;;;8.20;;
27223;SDS011;14965;50.660;13.226;2023-12-14T08:53:24;20.35;;;8.52;;
27223;SDS011;14965;50.660;13.226;2023-12-14T08:55:54;18.13;;;6.90;;
27223;SDS011;14965;50.660;13.226;2023-12-14T08:58:20;22.38;;;8.38;;
27223;SDS011;14965;50.660;13.226;2023-12-14T09:00:46;21.50;;;7.10;;
27223;SDS011;14965;50.660;13.226;2023-12-14T09:03:12;28.10;;;9.38;;
27223;SDS011;14965;50.660;13.226;2023-12-14T09:05:37;31.58;;;9.13;;
27223;SDS011;14965;50.660;13.226;2023-12-14T09:08:03;50.63;;;9.55;;
27223;SDS011;14965;50.660;13.226;2023-12-14T09:10:30;111.35;;;9.80;;
27223;SDS011;14965;50.660;13.226;2023-12-14T09:12:57;35.38;;;7.38;;
27223;SDS011;14965;50.660;13.226;2023-12-14T09:15:23;115.82;;;15.00;;
27223;SDS011;14965;50.660;13.226;2023-12-14T09:17:49;312.63;;;23.88;;
27223;SDS011;14965;50.660;13.226;2023-12-14T09:20:14;219.48;;;17.67;;
27223;SDS011;14965;50.660;13.226;2023-12-14T09:22:40;79.97;;;10.13;;
27223;SDS011;14965;50.660;13.226;2023-12-14T09:25:07;94.53;;;11.50;;
27223;SDS011;14965;50.660;13.226;2023-12-14T09:27:33;36.15;;;11.13;;
27223;SDS011;14965;50.660;13.226;2023-12-14T09:30:00;187.98;;;19.77;;
27223;SDS011;14965;50.660;13.226;2023-12-14T09:32:26;32.95;;;11.88;;
27223;SDS011;14965;50.660;13.226;2023-12-14T09:34:52;21.95;;;9.23;;
27223;SDS011;14965;50.660;13.226;2023-12-14T09:37:18;143.57;;;13.07;;
27223;SDS011;14965;50.660;13.226;2023-12-14T09:39:44;61.70;;;11.43;;
27223;SDS011;14965;50.660;13.226;2023-12-14T09:42:10;175.43;;;12.82;;
27223;SDS011;14965;50.660;13.226;2023-12-14T09:44:36;26.33;;;7.45;;
27223;SDS011;14965;50.660;13.226;2023-12-14T09:47:04;47.13;;;8.50;;
27223;SDS011;14965;50.660;13.226;2023-12-14T09:49:31;136.93;;;13.93;;
27223;SDS011;14965;50.660;13.226;2023-12-14T09:54:26;195.27;;;14.13;;
27223;SDS011;14965;50.660;13.226;2023-12-14T09:56:53;39.53;;;10.23;;
27223;SDS011;14965;50.660;13.226;2023-12-14T09:59:19;48.83;;;10.60;;
27223;SDS011;14965;50.660;13.226;2023-12-14T10:01:46;35.75;;;9.93;;
27223;SDS011;14965;50.660;13.226;2023-12-14T10:04:14;28.73;;;9.80;;
27223;SDS011;14965;50.660;13.226;2023-12-14T10:06:42;30.63;;;10.73;;
27223;SDS011;14965;50.660;13.226;2023-12-14T10:09:10;30.93;;;11.50;;
27223;SDS011;14965;50.660;13.226;2023-12-14T10:11:37;45.53;;;13.38;;
27223;SDS011;14965;50.660;13.226;2023-12-14T10:14:02;45.80;;;12.73;;
27223;SDS011;14965;50.660;13.226;2023-12-14T10:16:42;57.50;;;12.90;;
27223;SDS011;14965;50.660;13.226;2023-12-14T10:19:08;45.03;;;14.25;;
27223;SDS011;14965;50.660;13.226;2023-12-14T10:21:35;31.42;;;12.43;;
27223;SDS011;14965;50.660;13.226;2023-12-14T10:24:01;66.03;;;24.77;;
27223;SDS011;14965;50.660;13.226;2023-12-14T10:26:28;31.48;;;14.90;;
27223;SDS011;14965;50.660;13.226;2023-12-14T10:28:54;40.88;;;13.25;;
27223;SDS011;14965;50.660;13.226;2023-12-14T10:31:19;134.80;;;12.52;;
27223;SDS011;14965;50.660;13.226;2023-12-14T10:33:45;146.68;;;15.15;;
27223;SDS011;14965;50.660;13.226;2023-12-14T10:36:12;198.07;;;15.80;;
27223;SDS011;14965;50.660;13.226;2023-12-14T10:38:41;323.15;;;20.65;;
27223;SDS011;14965;50.660;13.226;2023-12-14T10:41:11;266.05;;;17.83;;
27223;SDS011;14965;50.660;13.226;2023-12-14T10:43:38;227.85;;;14.88;;
27223;SDS011;14965;50.660;13.226;2023-12-14T10:46:06;79.40;;;10.93;;
27223;SDS011;14965;50.660;13.226;2023-12-14T10:48:35;112.45;;;11.75;;
27223;SDS011;14965;50.660;13.226;2023-12-14T10:51:01;192.68;;;13.63;;
27223;SDS011;14965;50.660;13.226;2023-12-14T10:53:28;225.13;;;14.20;;
27223;SDS011;14965;50.660;13.226;2023-12-14T10:55:56;129.43;;;13.73;;
27223;SDS011;14965;50.660;13.226;2023-12-14T10:58:25;62.90;;;9.93;;
27223;SDS011;14965;50.660;13.226;2023-12-14T11:00:58;175.00;;;14.60;;
27223;SDS011;14965;50.660;13.226;2023-12-14T11:03:25;115.95;;;11.35;;
27223;SDS011;14965;50.660;13.226;2023-12-14T11:05:51;209.55;;;13.95;;
27223;SDS011;14965;50.660;13.226;2023-12-14T11:08:18;12.13;;;6.95;;
27223;SDS011;14965;50.660;13.226;2023-12-14T11:10:52;16.73;;;7.28;;
27223;SDS011;14965;50.660;13.226;2023-12-14T11:13:21;13.43;;;5.50;;
27223;SDS011;14965;50.660;13.226;2023-12-14T11:15:47;10.07;;;5.55;;
27223;SDS011;14965;50.660;13.226;2023-12-14T11:18:22;14.27;;;5.60;;
27223;SDS011;14965;50.660;13.226;2023-12-14T11:20:54;11.13;;;5.88;;
27223;SDS011;14965;50.660;13.226;2023-12-14T11:23:26;9.63;;;4.85;;
27223;SDS011;14965;50.660;13.226;2023-12-14T11:25:58;48.03;;;20.17;;
27223;SDS011;14965;50.660;13.226;2023-12-14T11:28:27;16.00;;;6.95;;
27223;SDS011;14965;50.660;13.226;2023-12-14T11:30:53;16.23;;;7.70;;
27223;SDS011;14965;50.660;13.226;2023-12-14T11:33:20;54.97;;;19.67;;
27223;SDS011;14965;50.660;13.226;2023-12-14T11:35:46;33.97;;;13.45;;
27223;SDS011;14965;50.660;13.226;2023-12-14T11:38:12;40.22;;;16.38;;
27223;SDS011;14965;50.660;13.226;2023-12-14T11:40:38;22.92;;;9.60;;
27223;SDS011;14965;50.660;13.226;2023-12-14T11:43:05;44.22;;;15.10;;
27223;SDS011;14965;50.660;13.226;2023-12-14T11:45:33;44.63;;;14.93;;
27223;SDS011;14965;50.660;13.226;2023-12-14T11:47:59;43.70;;;14.55;;
27223;SDS011;14965;50.660;13.226;2023-12-14T11:50:26;39.60;;;13.48;;
27223;SDS011;14965;50.660;13.226;2023-12-14T11:52:52;23.25;;;10.18;;
27223;SDS011;14965;50.660;13.226;2023-12-14T11:55:21;24.75;;;9.98;;
27223;SDS011;14965;50.660;13.226;2023-12-14T11:57:47;46.42;;;17.02;;
27223;SDS011;14965;50.660;13.226;2023-12-14T12:00:14;19.80;;;8.30;;
27223;SDS011;14965;50.660;13.226;2023-12-14T12:02:43;13.70;;;7.38;;
27223;SDS011;14965;50.660;13.226;2023-12-14T12:05:09;29.13;;;12.68;;
27223;SDS011;14965;50.660;13.226;2023-12-14T12:07:35;21.25;;;10.85;;
27223;SDS011;14965;50.660;13.226;2023-12-14T12:10:01;13.40;;;7.60;;
27223;SDS011;14965;50.660;13.226;2023-12-14T12:12:27;27.05;;;12.93;;
27223;SDS011;14965;50.660;13.226;2023-12-14T12:14:53;26.88;;;10.52;;
27223;SDS011;14965;50.660;13.226;2023-12-14T12:17:19;26.13;;;11.43;;
27223;SDS011;14965;50.660;13.226;2023-12-14T12:19:46;19.42;;;9.55;;
27223;SDS011;14965;50.660;13.226;2023-12-14T12:22:12;20.85;;;9.93;;
27223;SDS011;14965;50.660;13.226;2023-12-14T12:24:38;15.07;;;8.60;;
27223;SDS011;14965;50.660;13.226;2023-12-14T12:27:04;13.77;;;8.43;;
27223;SDS011;14965;50.660;13.226;2023-12-14T12:29:30;28.17;;;12.23;;
27223;SDS011;14965;50.660;13.226;2023-12-14T12:31:56;28.75;;;16.85;;
27223;SDS011;14965;50.660;13.226;2023-12-14T12:34:22;37.30;;;22.58;;
27223;SDS011;14965;50.660;13.226;2023-12-14T12:36:49;16.60;;;8.75;;
27223;SDS011;14965;50.660;13.226;2023-12-14T12:39:15;9.60;;;5.80;;
27223;SDS011;14965;50.660;13.226;2023-12-14T12:41:41;18.45;;;11.32;;
27223;SDS011;14965;50.660;13.226;2023-12-14T12:44:07;11.02;;;6.47;;
27223;SDS011;14965;50.660;13.226;2023-12-14T12:46:33;31.42;;;18.73;;
27223;SDS011;14965;50.660;13.226;2023-12-14T12:49:00;12.65;;;7.82;;
27223;SDS011;14965;50.660;13.226;2023-12-14T12:51:27;9.63;;;6.55;;
27223;SDS011;14965;50.660;13.226;2023-12-14T12:53:54;18.98;;;7.95;;
27223;SDS011;14965;50.660;13.226;2023-12-14T12:56:20;22.17;;;10.30;;
27223;SDS011;14965;50.660;13.226;2023-12-14T12:58:46;20.20;;;10.95;;
27223;SDS011;14965;50.660;13.226;2023-12-14T13:01:12;18.75;;;11.05;;
27223;SDS011;14965;50.660;13.226;2023-12-14T13:03:38;31.27;;;11.55;;
27223;SDS011;14965;50.660;13.226;2023-12-14T13:06:04;107.40;;;13.88;;
27223;SDS011;14965;50.660;13.226;2023-12-14T13:08:30;346.63;;;16.58;;
27223;SDS011;14965;50.660;13.226;2023-12-14T13:10:57;374.60;;;16.52;;
27223;SDS011;14965;50.660;13.226;2023-12-14T13:13:23;396.08;;;19.30;;
27223;SDS011;14965;50.660;13.226;2023-12-14T13:15:49;82.13;;;10.23;;
27223;SDS011;14965;50.660;13.226;2023-12-14T13:18:15;23.85;;;9.00;;
27223;SDS011;14965;50.660;13.226;2023-12-14T13:20:41;17.33;;;8.95;;
27223;SDS011;14965;50.660;13.226;2023-12-14T13:23:07;15.75;;;8.75;;
27223;SDS011;14965;50.660;13.226;2023-12-14T13:25:33;14.35;;;8.88;;
27223;SDS011;14965;50.660;13.226;2023-12-14T13:28:00;17.83;;;9.75;;
27223;SDS011;14965;50.660;13.226;2023-12-14T13:30:26;9.32;;;6.10;;
27223;SDS011;14965;50.660;13.226;2023-12-14T13:32:52;13.73;;;8.23;;
27223;SDS011;14965;50.660;13.226;2023-12-14T13:35:18;13.55;;;7.25;;
27223;SDS011;14965;50.660;13.226;2023-12-14T13:37:45;24.73;;;10.77;;
27223;SDS011;14965;50.660;13.226;2023-12-14T13:40:11;25.88;;;9.65;;
27223;SDS011;14965;50.660;13.226;2023-12-14T13:42:37;15.95;;;5.97;;
27223;SDS011;14965;50.660;13.226;2023-12-14T13:45:04;12.75;;;5.80;;
27223;SDS011;14965;50.660;13.226;2023-12-14T13:47:32;36.30;;;11.45;;
27223;SDS011;14965;50.660;13.226;2023-12-14T13:49:58;7.78;;;4.45;;
27223;SDS011;14965;50.660;13.226;2023-12-14T13:52:24;70.72;;;26.25;;
27223;SDS011;14965;50.660;13.226;2023-12-14T13:54:49;39.00;;;14.00;;
27223;SDS011;14965;50.660;13.226;2023-12-14T13:57:15;23.40;;;8.77;;
27223;SDS011;14965;50.660;13.226;2023-12-14T13:59:41;22.35;;;7.65;;
27223;SDS011;14965;50.660;13.226;2023-12-14T14:02:08;27.65;;;10.80;;
27223;SDS011;14965;50.660;13.226;2023-12-14T14:04:34;24.75;;;10.07;;
27223;SDS011;14965;50.660;13.226;2023-12-14T14:07:00;44.17;;;15.73;;
27223;SDS011;14965;50.660;13.226;2023-12-14T14:09:26;23.73;;;9.88;;
27223;SDS011;14965;50.660;13.226;2023-12-14T14:11:52;42.45;;;15.82;;
27223;SDS011;14965;50.660;13.226;2023-12-14T14:14:18;34.85;;;12.13;;
27223;SDS011;14965;50.660;13.226;2023-12-14T14:16:44;12.77;;;6.95;;